X-preSS Vesuvio — 9HA3961 — position and weather

sailwx.info

Track history (hours):
 
Tides and Currents Weather Stations Pressure Air Temp Water Temp Dewpoint Dewpoint Depression Visibility Wind Speed Wind Dir Waves Ship Positions

X-preSS Vesuvio

Last reported at 2017-Nov-23 08:02 UTC. Time now 2017-Nov-23 11:26 UTC.
Position N 37°06' W 001°14'.

Length 134 m; draft 6 m.

Type: Ship. MMSI: 256601000.

Date/timePositionNaut miles runAvg speedWind from/ knotsBaromVisibWave heightAir tempDewpointWater temp
2017-Nov-23 08:02N 37°06' W 001°14'410.3
2017-Nov-23 07:39N 37°09' W 001°10'211.4
2017-Nov-23 07:30N 37°10' W 001°09'612.0
2017-Nov-23 07:00N 37°14' W 001°03'510.6
2017-Nov-23 06:30N 37°17' W 000°58'510.7
2017-Nov-23 06:00N 37°21' W 000°53'510.9
2017-Nov-23 05:30N 37°24' W 000°48'510.8
2017-Nov-23 05:00N 37°28' W 000°43'510.8
2017-Nov-23 04:30N 37°31' W 000°38'510.8
2017-Nov-23 04:00N 37°35' W 000°33'510.9
2017-Nov-23 03:30N 37°40' W 000°29'611.1
2017-Nov-23 03:00N 37°44' W 000°25'611.1
2017-Nov-23 02:27N 37°50' W 000°21'810.9
2017-Nov-23 01:42N 37°57' W 000°15'210.8
2017-Nov-23 01:30N 37°58' W 000°14'610.8
2017-Nov-23 00:59N 38°03' W 000°10'510.8
2017-Nov-23 00:30N 38°07' W 000°07'1410.7
2017-Nov-22 23:12N 38°19' E 000°03'4 9.7
2017-Nov-22 22:46N 38°23' E 000°06'3 9.9
2017-Nov-22 22:29N 38°25' E 000°08'9 9.7
2017-Nov-22 21:35N 38°32' E 000°14'2 9.4
2017-Nov-22 21:26N 38°33' E 000°15'4 9.3
2017-Nov-22 20:58N 38°37' E 000°18'5 9.4
2017-Nov-22 20:25N 38°41' E 000°22'4 9.7
2017-Nov-22 20:00N 38°45' E 000°24'7 9.9
2017-Nov-22 19:18N 38°51' E 000°28'  
2017-Nov-19 20:06N 38°34' E 000°20'6213.1
2017-Nov-19 15:21N 37°42' W 000°23'412.8
2017-Nov-19 15:00N 37°38' W 000°26'612.8
2017-Nov-19 14:30N 37°33' W 000°31'812.7
2017-Nov-19 13:50N 37°27' W 000°39'412.7
2017-Nov-19 13:30N 37°25' W 000°43'612.6
2017-Nov-19 13:00N 37°20' W 000°49'712.4
2017-Nov-19 12:27N 37°16' W 000°55'22012.0
2017-Nov-18 18:11N 36°01' W 005°12'213.2
2017-Nov-18 18:00N 36°01' W 005°16'612.3
2017-Nov-18 17:30N 36°04' W 005°22'5 2.2
2017-Nov-18 15:24N 36°08' W 005°25'0 0.0
2017-Nov-18 15:00N 36°08' W 005°25'0 0.0
2017-Nov-18 14:15N 36°08' W 005°25'0 0.0
2017-Nov-18 14:00N 36°08' W 005°25'0 0.0
2017-Nov-18 06:20N 36°08' W 005°25'0 0.1
2017-Nov-18 06:00N 36°08' W 005°25'2 0.4
2017-Nov-17 23:34N 36°10' W 005°25'0 0.0
2017-Nov-17 23:07N 36°10' W 005°26'0 0.0
2017-Nov-17 22:49N 36°10' W 005°26'0 0.0
2017-Nov-17 01:16N 36°10' W 005°25'0 0.1
2017-Nov-17 00:45N 36°10' W 005°25'0 0.0
2017-Nov-16 23:30N 36°10' W 005°25'0 0.0
2017-Nov-16 22:51N 36°10' W 005°25'0 0.0
2017-Nov-16 22:30N 36°10' W 005°25'0 0.0
2017-Nov-16 21:47N 36°10' W 005°25'0 0.3
2017-Nov-16 21:29N 36°10' W 005°25'5 6.2
2017-Nov-16 20:38N 36°05' W 005°23'111.6
2017-Nov-16 20:31N 36°04' W 005°21'1 2.8
2017-Nov-16 20:01N 36°03' W 005°22'1 1.4
2017-Nov-16 19:30N 36°04' W 005°21'1 1.0
2017-Nov-16 18:59N 36°04' W 005°21'0 1.0
2017-Nov-16 18:30N 36°03' W 005°21'0 0.9
2017-Nov-16 18:01N 36°03' W 005°21'3 5.0
2017-Nov-16 17:30N 36°04' W 005°18'3 5.8
2017-Nov-16 17:01N 36°04' W 005°15'0 0.4
2017-Nov-16 16:31N 36°04' W 005°15'0 0.6
2017-Nov-16 16:00N 36°04' W 005°15'0 0.5
2017-Nov-16 15:31N 36°04' W 005°15'0 0.6
2017-Nov-16 15:01N 36°04' W 005°16'0 0.7
2017-Nov-16 14:31N 36°03' W 005°16'0 0.6
2017-Nov-16 14:01N 36°03' W 005°16'0 0.7
2017-Nov-16 13:30N 36°03' W 005°17'0 0.9
2017-Nov-16 13:00N 36°03' W 005°17'0 0.8
2017-Nov-16 12:31N 36°03' W 005°18'0 0.8
2017-Nov-16 12:01N 36°03' W 005°18'0 0.7
2017-Nov-16 11:30N 36°03' W 005°19'0 0.6
2017-Nov-16 11:01N 36°03' W 005°19'0 0.5
2017-Nov-16 10:31N 36°03' W 005°19'0 0.9
2017-Nov-16 10:00N 36°03' W 005°20'0 0.6
2017-Nov-16 09:30N 36°03' W 005°20'0 0.4
2017-Nov-16 09:01N 36°03' W 005°20'0 0.7
2017-Nov-16 08:19N 36°03' W 005°21'0 1.4
2017-Nov-16 08:00N 36°03' W 005°21'1 1.1
2017-Nov-16 07:30N 36°03' W 005°22'3 6.4
2017-Nov-16 07:01N 36°00' W 005°23'5 9.8
2017-Nov-16 06:31N 35°58' W 005°28'  
Track history (hours):
 
Tides and Currents Weather Stations Pressure Air Temp Water Temp Dewpoint Dewpoint Depression Visibility Wind Speed Wind Dir Waves Ship Positions

X-preSS Vesuvio

Last reported at 2017-Nov-23 08:02 UTC. Time now 2017-Nov-23 11:26 UTC.
Position N 37°06' W 001°14'.

Length 134 m; draft 6 m.

Type: Ship. MMSI: 256601000.

Date/timePositionNaut miles runAvg speedWind from/ knotsBaromVisibWave heightAir tempDewpointWater temp
2017-Nov-23 08:02N 37°06' W 001°14'410.3
2017-Nov-23 07:39N 37°09' W 001°10'211.4
2017-Nov-23 07:30N 37°10' W 001°09'612.0
2017-Nov-23 07:00N 37°14' W 001°03'510.6
2017-Nov-23 06:30N 37°17' W 000°58'510.7
2017-Nov-23 06:00N 37°21' W 000°53'510.9
2017-Nov-23 05:30N 37°24' W 000°48'510.8
2017-Nov-23 05:00N 37°28' W 000°43'510.8
2017-Nov-23 04:30N 37°31' W 000°38'510.8
2017-Nov-23 04:00N 37°35' W 000°33'510.9
2017-Nov-23 03:30N 37°40' W 000°29'611.1
2017-Nov-23 03:00N 37°44' W 000°25'611.1
2017-Nov-23 02:27N 37°50' W 000°21'810.9
2017-Nov-23 01:42N 37°57' W 000°15'210.8
2017-Nov-23 01:30N 37°58' W 000°14'610.8
2017-Nov-23 00:59N 38°03' W 000°10'510.8
2017-Nov-23 00:30N 38°07' W 000°07'1410.7
2017-Nov-22 23:12N 38°19' E 000°03'4 9.7
2017-Nov-22 22:46N 38°23' E 000°06'3 9.9
2017-Nov-22 22:29N 38°25' E 000°08'9 9.7
2017-Nov-22 21:35N 38°32' E 000°14'2 9.4
2017-Nov-22 21:26N 38°33' E 000°15'4 9.3
2017-Nov-22 20:58N 38°37' E 000°18'5 9.4
2017-Nov-22 20:25N 38°41' E 000°22'4 9.7
2017-Nov-22 20:00N 38°45' E 000°24'7 9.9
2017-Nov-22 19:18N 38°51' E 000°28'  
2017-Nov-19 20:06N 38°34' E 000°20'6213.1
2017-Nov-19 15:21N 37°42' W 000°23'412.8
2017-Nov-19 15:00N 37°38' W 000°26'612.8
2017-Nov-19 14:30N 37°33' W 000°31'812.7
2017-Nov-19 13:50N 37°27' W 000°39'412.7
2017-Nov-19 13:30N 37°25' W 000°43'612.6
2017-Nov-19 13:00N 37°20' W 000°49'712.4
2017-Nov-19 12:27N 37°16' W 000°55'22012.0
2017-Nov-18 18:11N 36°01' W 005°12'213.2
2017-Nov-18 18:00N 36°01' W 005°16'612.3
2017-Nov-18 17:30N 36°04' W 005°22'5 2.2
2017-Nov-18 15:24N 36°08' W 005°25'0 0.0
2017-Nov-18 15:00N 36°08' W 005°25'0 0.0
2017-Nov-18 14:15N 36°08' W 005°25'0 0.0
2017-Nov-18 14:00N 36°08' W 005°25'0 0.0
2017-Nov-18 06:20N 36°08' W 005°25'0 0.1
2017-Nov-18 06:00N 36°08' W 005°25'2 0.4
2017-Nov-17 23:34N 36°10' W 005°25'0 0.0
2017-Nov-17 23:07N 36°10' W 005°26'0 0.0
2017-Nov-17 22:49N 36°10' W 005°26'0 0.0
2017-Nov-17 01:16N 36°10' W 005°25'0 0.1
2017-Nov-17 00:45N 36°10' W 005°25'0 0.0
2017-Nov-16 23:30N 36°10' W 005°25'0 0.0
2017-Nov-16 22:51N 36°10' W 005°25'0 0.0
2017-Nov-16 22:30N 36°10' W 005°25'0 0.0
2017-Nov-16 21:47N 36°10' W 005°25'0 0.3
2017-Nov-16 21:29N 36°10' W 005°25'5 6.2
2017-Nov-16 20:38N 36°05' W 005°23'111.6
2017-Nov-16 20:31N 36°04' W 005°21'1 2.8
2017-Nov-16 20:01N 36°03' W 005°22'1 1.4
2017-Nov-16 19:30N 36°04' W 005°21'1 1.0
2017-Nov-16 18:59N 36°04' W 005°21'0 1.0
2017-Nov-16 18:30N 36°03' W 005°21'0 0.9
2017-Nov-16 18:01N 36°03' W 005°21'3 5.0
2017-Nov-16 17:30N 36°04' W 005°18'3 5.8
2017-Nov-16 17:01N 36°04' W 005°15'0 0.4
2017-Nov-16 16:31N 36°04' W 005°15'0 0.6
2017-Nov-16 16:00N 36°04' W 005°15'0 0.5
2017-Nov-16 15:31N 36°04' W 005°15'0 0.6
2017-Nov-16 15:01N 36°04' W 005°16'0 0.7
2017-Nov-16 14:31N 36°03' W 005°16'0 0.6
2017-Nov-16 14:01N 36°03' W 005°16'0 0.7
2017-Nov-16 13:30N 36°03' W 005°17'0 0.9
2017-Nov-16 13:00N 36°03' W 005°17'0 0.8
2017-Nov-16 12:31N 36°03' W 005°18'0 0.8
2017-Nov-16 12:01N 36°03' W 005°18'0 0.7
2017-Nov-16 11:30N 36°03' W 005°19'0 0.6
2017-Nov-16 11:01N 36°03' W 005°19'0 0.5
2017-Nov-16 10:31N 36°03' W 005°19'0 0.9
2017-Nov-16 10:00N 36°03' W 005°20'0 0.6
2017-Nov-16 09:30N 36°03' W 005°20'0 0.4
2017-Nov-16 09:01N 36°03' W 005°20'0 0.7
2017-Nov-16 08:19N 36°03' W 005°21'0 1.4
2017-Nov-16 08:00N 36°03' W 005°21'1 1.1
2017-Nov-16 07:30N 36°03' W 005°22'3 6.4
2017-Nov-16 07:01N 36°00' W 005°23'5 9.8
2017-Nov-16 06:31N 35°58' W 005°28'  

Dump ship's entire track history